Zabcikville, Texas
Current Conditions -  °F | °C
As of 4:35 PM on Sunday 23 Nov 2014 (Local Time) from KTPL Reporting Station
Clear Clear  
Wind Chill: 75°   Ceiling: Unl
Heat Index: 75°   Visibility: 10mi
Dew Point: 39°   Wind: 14mph
Humidity: 27%   Direction: 240°WSW
Pressure: 29.5"   Gusts: 22mph
Location:  31.0795°N, 97.3287°W
Report Text: KTPL 232235Z AUTO 24012G19KT 10SM CLR 24/04 A2950 RMK AO1
Loading
Personal Weather Stations






























Interactive Weather Map New forecast layout! Learn more

10-Day Weather Forecast

Advertisements
Track Severe Weather on mobile